sensor_id;sensor_type;location;lat;lon;timestamp;temperature;humidity
46364;DHT22;32071;49.036;9.344;2024-03-17T00:00:37;5.80;99.90
46364;DHT22;32071;49.036;9.344;2024-03-17T00:03:05;5.80;99.90
46364;DHT22;32071;49.036;9.344;2024-03-17T00:05:31;5.70;99.90
46364;DHT22;32071;49.036;9.344;2024-03-17T00:07:57;5.70;99.90
46364;DHT22;32071;49.036;9.344;2024-03-17T00:10:23;5.60;99.90
46364;DHT22;32071;49.036;9.344;2024-03-17T00:12:48;5.60;99.90
46364;DHT22;32071;49.036;9.344;2024-03-17T00:15:14;5.60;99.90
46364;DHT22;32071;49.036;9.344;2024-03-17T00:17:40;5.50;99.90
46364;DHT22;32071;49.036;9.344;2024-03-17T00:20:06;5.50;99.90
46364;DHT22;32071;49.036;9.344;2024-03-17T00:22:45;5.40;99.90
46364;DHT22;32071;49.036;9.344;2024-03-17T00:25:11;5.30;99.90
46364;DHT22;32071;49.036;9.344;2024-03-17T00:27:37;5.40;99.90
46364;DHT22;32071;49.036;9.344;2024-03-17T00:30:10;5.40;99.90
46364;DHT22;32071;49.036;9.344;2024-03-17T00:32:42;5.30;99.90
46364;DHT22;32071;49.036;9.344;2024-03-17T00:35:09;5.30;99.90
46364;DHT22;32071;49.036;9.344;2024-03-17T00:37:35;5.30;99.90
46364;DHT22;32071;49.036;9.344;2024-03-17T00:40:02;5.20;99.90
46364;DHT22;32071;49.036;9.344;2024-03-17T00:42:28;5.20;99.90
46364;DHT22;32071;49.036;9.344;2024-03-17T00:44:53;5.10;99.90
46364;DHT22;32071;49.036;9.344;2024-03-17T00:47:20;5.20;99.90
46364;DHT22;32071;49.036;9.344;2024-03-17T00:49:46;5.20;99.90
46364;DHT22;32071;49.036;9.344;2024-03-17T00:52:11;5.10;99.90
46364;DHT22;32071;49.036;9.344;2024-03-17T00:54:37;5.10;99.90
46364;DHT22;32071;49.036;9.344;2024-03-17T00:57:02;5.00;99.90
46364;DHT22;32071;49.036;9.344;2024-03-17T00:59:28;4.90;99.90
46364;DHT22;32071;49.036;9.344;2024-03-17T01:01:53;4.90;99.90
46364;DHT22;32071;49.036;9.344;2024-03-17T01:04:19;4.90;99.90
46364;DHT22;32071;49.036;9.344;2024-03-17T01:06:44;4.90;99.90
46364;DHT22;32071;49.036;9.344;2024-03-17T01:09:10;4.90;99.90
46364;DHT22;32071;49.036;9.344;2024-03-17T01:11:35;4.90;99.90
46364;DHT22;32071;49.036;9.344;2024-03-17T01:14:01;4.90;99.90
46364;DHT22;32071;49.036;9.344;2024-03-17T01:16:28;4.90;99.90
46364;DHT22;32071;49.036;9.344;2024-03-17T01:18:53;4.90;99.90
46364;DHT22;32071;49.036;9.344;2024-03-17T01:21:20;4.80;99.90
46364;DHT22;32071;49.036;9.344;2024-03-17T01:23:47;4.80;99.90
46364;DHT22;32071;49.036;9.344;2024-03-17T01:26:13;4.80;99.90
46364;DHT22;32071;49.036;9.344;2024-03-17T01:28:39;4.80;99.90
46364;DHT22;32071;49.036;9.344;2024-03-17T01:31:07;4.80;99.90
46364;DHT22;32071;49.036;9.344;2024-03-17T01:33:33;4.80;99.90
46364;DHT22;32071;49.036;9.344;2024-03-17T01:35:59;4.80;99.90
46364;DHT22;32071;49.036;9.344;2024-03-17T01:38:25;4.80;99.90
46364;DHT22;32071;49.036;9.344;2024-03-17T01:40:50;4.80;99.90
46364;DHT22;32071;49.036;9.344;2024-03-17T01:43:16;4.80;99.90
46364;DHT22;32071;49.036;9.344;2024-03-17T01:45:41;4.80;99.90
46364;DHT22;32071;49.036;9.344;2024-03-17T01:48:13;4.70;99.90
46364;DHT22;32071;49.036;9.344;2024-03-17T01:50:41;4.70;99.90
46364;DHT22;32071;49.036;9.344;2024-03-17T01:53:09;4.70;99.90
46364;DHT22;32071;49.036;9.344;2024-03-17T01:55:37;4.70;99.90
46364;DHT22;32071;49.036;9.344;2024-03-17T01:58:04;4.70;99.90
46364;DHT22;32071;49.036;9.344;2024-03-17T02:00:36;4.70;99.90
46364;DHT22;32071;49.036;9.344;2024-03-17T02:03:04;4.70;99.90
46364;DHT22;32071;49.036;9.344;2024-03-17T02:05:30;4.70;99.90
46364;DHT22;32071;49.036;9.344;2024-03-17T02:07:56;4.70;99.90
46364;DHT22;32071;49.036;9.344;2024-03-17T02:10:22;4.70;99.90
46364;DHT22;32071;49.036;9.344;2024-03-17T02:12:48;4.60;99.90
46364;DHT22;32071;49.036;9.344;2024-03-17T02:15:14;4.60;99.90
46364;DHT22;32071;49.036;9.344;2024-03-17T02:17:40;4.60;99.90
46364;DHT22;32071;49.036;9.344;2024-03-17T02:20:06;4.50;99.90
46364;DHT22;32071;49.036;9.344;2024-03-17T02:22:36;4.50;99.90
46364;DHT22;32071;49.036;9.344;2024-03-17T02:25:02;4.50;99.90
46364;DHT22;32071;49.036;9.344;2024-03-17T02:27:28;4.40;99.90
46364;DHT22;32071;49.036;9.344;2024-03-17T02:29:55;4.40;99.90
46364;DHT22;32071;49.036;9.344;2024-03-17T02:32:21;4.40;99.90
46364;DHT22;32071;49.036;9.344;2024-03-17T02:34:48;4.40;99.90
46364;DHT22;32071;49.036;9.344;2024-03-17T02:37:14;4.40;99.90
46364;DHT22;32071;49.036;9.344;2024-03-17T02:39:40;4.40;99.90
46364;DHT22;32071;49.036;9.344;2024-03-17T02:42:07;4.40;99.90
46364;DHT22;32071;49.036;9.344;2024-03-17T02:44:34;4.40;99.90
46364;DHT22;32071;49.036;9.344;2024-03-17T02:47:01;4.30;99.90
46364;DHT22;32071;49.036;9.344;2024-03-17T02:49:28;4.30;99.90
46364;DHT22;32071;49.036;9.344;2024-03-17T02:52:07;4.30;99.90
46364;DHT22;32071;49.036;9.344;2024-03-17T02:54:37;4.30;99.90
46364;DHT22;32071;49.036;9.344;2024-03-17T02:57:04;4.30;99.90
46364;DHT22;32071;49.036;9.344;2024-03-17T02:59:29;4.30;99.90
46364;DHT22;32071;49.036;9.344;2024-03-17T03:01:56;4.30;99.90
46364;DHT22;32071;49.036;9.344;2024-03-17T03:04:22;4.30;99.90
46364;DHT22;32071;49.036;9.344;2024-03-17T03:06:47;4.30;99.90
46364;DHT22;32071;49.036;9.344;2024-03-17T03:09:14;4.30;99.90
46364;DHT22;32071;49.036;9.344;2024-03-17T03:11:45;4.30;99.90
46364;DHT22;32071;49.036;9.344;2024-03-17T03:14:12;4.30;99.90
46364;DHT22;32071;49.036;9.344;2024-03-17T03:16:37;4.30;99.90
46364;DHT22;32071;49.036;9.344;2024-03-17T03:19:03;4.30;99.90
46364;DHT22;32071;49.036;9.344;2024-03-17T03:21:30;4.30;99.90
46364;DHT22;32071;49.036;9.344;2024-03-17T03:23:56;4.30;99.90
46364;DHT22;32071;49.036;9.344;2024-03-17T03:26:22;4.30;99.90
46364;DHT22;32071;49.036;9.344;2024-03-17T03:28:50;4.30;99.90
46364;DHT22;32071;49.036;9.344;2024-03-17T03:31:17;4.30;99.90
46364;DHT22;32071;49.036;9.344;2024-03-17T03:33:43;4.20;99.90
46364;DHT22;32071;49.036;9.344;2024-03-17T03:36:13;4.20;99.90
46364;DHT22;32071;49.036;9.344;2024-03-17T03:38:39;4.20;99.90
46364;DHT22;32071;49.036;9.344;2024-03-17T03:41:15;4.20;99.90
46364;DHT22;32071;49.036;9.344;2024-03-17T03:43:41;4.20;99.90
46364;DHT22;32071;49.036;9.344;2024-03-17T03:46:09;4.20;99.90
46364;DHT22;32071;49.036;9.344;2024-03-17T03:48:35;4.20;99.90
46364;DHT22;32071;49.036;9.344;2024-03-17T03:51:08;4.20;99.90
46364;DHT22;32071;49.036;9.344;2024-03-17T03:53:35;4.10;99.90
46364;DHT22;32071;49.036;9.344;2024-03-17T03:56:03;4.10;99.90
46364;DHT22;32071;49.036;9.344;2024-03-17T03:58:32;4.10;99.90
46364;DHT22;32071;49.036;9.344;2024-03-17T04:00:57;4.10;99.90
46364;DHT22;32071;49.036;9.344;2024-03-17T04:03:23;4.00;99.90
46364;DHT22;32071;49.036;9.344;2024-03-17T04:05:48;4.00;99.90
46364;DHT22;32071;49.036;9.344;2024-03-17T04:08:14;4.00;99.90
46364;DHT22;32071;49.036;9.344;2024-03-17T04:10:39;4.00;99.90
46364;DHT22;32071;49.036;9.344;2024-03-17T04:13:05;3.90;99.90
46364;DHT22;32071;49.036;9.344;2024-03-17T04:15:31;3.90;99.90
46364;DHT22;32071;49.036;9.344;2024-03-17T04:17:56;3.80;99.90
46364;DHT22;32071;49.036;9.344;2024-03-17T04:20:22;3.80;99.90
46364;DHT22;32071;49.036;9.344;2024-03-17T04:22:47;3.80;99.90
46364;DHT22;32071;49.036;9.344;2024-03-17T04:25:14;3.80;99.90
46364;DHT22;32071;49.036;9.344;2024-03-17T04:27:40;3.80;99.90
46364;DHT22;32071;49.036;9.344;2024-03-17T04:30:06;3.80;99.90
46364;DHT22;32071;49.036;9.344;2024-03-17T04:32:33;3.80;99.90
46364;DHT22;32071;49.036;9.344;2024-03-17T04:34:58;3.70;99.90
46364;DHT22;32071;49.036;9.344;2024-03-17T04:37:24;3.60;99.90
46364;DHT22;32071;49.036;9.344;2024-03-17T04:39:50;3.60;99.90
46364;DHT22;32071;49.036;9.344;2024-03-17T04:42:17;3.60;99.90
46364;DHT22;32071;49.036;9.344;2024-03-17T04:44:43;3.60;99.90
46364;DHT22;32071;49.036;9.344;2024-03-17T04:47:09;3.70;99.90
46364;DHT22;32071;49.036;9.344;2024-03-17T04:49:36;3.60;99.90
46364;DHT22;32071;49.036;9.344;2024-03-17T04:52:02;3.60;99.90
46364;DHT22;32071;49.036;9.344;2024-03-17T04:54:28;3.60;99.90
46364;DHT22;32071;49.036;9.344;2024-03-17T04:56:53;3.60;99.90
46364;DHT22;32071;49.036;9.344;2024-03-17T04:59:19;3.60;99.90
46364;DHT22;32071;49.036;9.344;2024-03-17T05:01:45;3.60;99.90
46364;DHT22;32071;49.036;9.344;2024-03-17T05:04:10;3.60;99.90
46364;DHT22;32071;49.036;9.344;2024-03-17T05:06:36;3.60;99.90
46364;DHT22;32071;49.036;9.344;2024-03-17T05:09:01;3.50;99.90
46364;DHT22;32071;49.036;9.344;2024-03-17T05:11:27;3.50;99.90
46364;DHT22;32071;49.036;9.344;2024-03-17T05:13:52;3.40;99.90
46364;DHT22;32071;49.036;9.344;2024-03-17T05:16:19;3.40;99.90
46364;DHT22;32071;49.036;9.344;2024-03-17T05:18:48;3.30;99.90
46364;DHT22;32071;49.036;9.344;2024-03-17T05:21:14;3.30;99.90
46364;DHT22;32071;49.036;9.344;2024-03-17T05:23:39;3.30;99.90
46364;DHT22;32071;49.036;9.344;2024-03-17T05:26:05;3.40;99.90
46364;DHT22;32071;49.036;9.344;2024-03-17T05:28:31;3.40;99.90
46364;DHT22;32071;49.036;9.344;2024-03-17T05:30:56;3.40;99.90
46364;DHT22;32071;49.036;9.344;2024-03-17T05:33:23;3.30;99.90
46364;DHT22;32071;49.036;9.344;2024-03-17T05:35:57;3.30;99.90
46364;DHT22;32071;49.036;9.344;2024-03-17T05:38:24;3.30;99.90
46364;DHT22;32071;49.036;9.344;2024-03-17T05:41:00;3.30;99.90
46364;DHT22;32071;49.036;9.344;2024-03-17T05:43:29;3.30;99.90
46364;DHT22;32071;49.036;9.344;2024-03-17T05:45:57;3.30;99.90
46364;DHT22;32071;49.036;9.344;2024-03-17T05:48:23;3.40;99.90
46364;DHT22;32071;49.036;9.344;2024-03-17T05:50:49;3.40;99.90
46364;DHT22;32071;49.036;9.344;2024-03-17T05:53:16;3.40;99.90
46364;DHT22;32071;49.036;9.344;2024-03-17T05:55:43;3.40;99.90
46364;DHT22;32071;49.036;9.344;2024-03-17T05:58:09;3.40;99.90
46364;DHT22;32071;49.036;9.344;2024-03-17T06:00:36;3.40;99.90
46364;DHT22;32071;49.036;9.344;2024-03-17T06:03:02;3.40;99.90
46364;DHT22;32071;49.036;9.344;2024-03-17T06:05:32;3.50;99.90
46364;DHT22;32071;49.036;9.344;2024-03-17T06:07:58;3.40;99.90
46364;DHT22;32071;49.036;9.344;2024-03-17T06:10:24;3.40;99.90
46364;DHT22;32071;49.036;9.344;2024-03-17T06:12:50;3.50;99.90
46364;DHT22;32071;49.036;9.344;2024-03-17T06:15:16;3.50;99.90
46364;DHT22;32071;49.036;9.344;2024-03-17T06:17:42;3.50;99.90
46364;DHT22;32071;49.036;9.344;2024-03-17T06:20:08;3.60;99.90
46364;DHT22;32071;49.036;9.344;2024-03-17T06:22:37;3.60;99.90
46364;DHT22;32071;49.036;9.344;2024-03-17T06:25:02;3.60;99.90
46364;DHT22;32071;49.036;9.344;2024-03-17T06:27:29;3.70;99.90
46364;DHT22;32071;49.036;9.344;2024-03-17T06:29:56;3.70;99.90
46364;DHT22;32071;49.036;9.344;2024-03-17T06:32:22;3.80;99.90
46364;DHT22;32071;49.036;9.344;2024-03-17T06:34:48;3.90;99.90
46364;DHT22;32071;49.036;9.344;2024-03-17T06:37:13;3.90;99.90
46364;DHT22;32071;49.036;9.344;2024-03-17T06:39:39;4.00;99.90
46364;DHT22;32071;49.036;9.344;2024-03-17T06:42:05;4.10;99.90
46364;DHT22;32071;49.036;9.344;2024-03-17T06:44:30;4.10;99.90
46364;DHT22;32071;49.036;9.344;2024-03-17T06:46:58;4.20;99.90
46364;DHT22;32071;49.036;9.344;2024-03-17T06:49:23;4.30;99.90
46364;DHT22;32071;49.036;9.344;2024-03-17T06:51:49;4.30;99.90
46364;DHT22;32071;49.036;9.344;2024-03-17T06:54:15;4.40;99.90
46364;DHT22;32071;49.036;9.344;2024-03-17T06:56:40;4.50;99.90
46364;DHT22;32071;49.036;9.344;2024-03-17T06:59:06;4.70;99.90
46364;DHT22;32071;49.036;9.344;2024-03-17T07:01:32;4.80;99.90
46364;DHT22;32071;49.036;9.344;2024-03-17T07:03:58;4.90;99.90
46364;DHT22;32071;49.036;9.344;2024-03-17T07:06:24;5.10;99.90
46364;DHT22;32071;49.036;9.344;2024-03-17T07:08:51;5.20;99.90
46364;DHT22;32071;49.036;9.344;2024-03-17T07:11:17;5.30;99.90
46364;DHT22;32071;49.036;9.344;2024-03-17T07:13:43;5.50;99.90
46364;DHT22;32071;49.036;9.344;2024-03-17T07:16:09;5.60;99.90
46364;DHT22;32071;49.036;9.344;2024-03-17T07:18:35;5.70;99.90
46364;DHT22;32071;49.036;9.344;2024-03-17T07:21:03;5.80;99.90
46364;DHT22;32071;49.036;9.344;2024-03-17T07:23:35;5.90;99.90
46364;DHT22;32071;49.036;9.344;2024-03-17T07:26:02;6.10;99.90
46364;DHT22;32071;49.036;9.344;2024-03-17T07:28:30;6.10;99.90
46364;DHT22;32071;49.036;9.344;2024-03-17T07:30:58;6.20;99.90
46364;DHT22;32071;49.036;9.344;2024-03-17T07:33:24;6.20;99.90
46364;DHT22;32071;49.036;9.344;2024-03-17T07:35:51;6.30;99.90
46364;DHT22;32071;49.036;9.344;2024-03-17T07:38:17;6.40;99.90
46364;DHT22;32071;49.036;9.344;2024-03-17T07:40:45;6.50;99.90
46364;DHT22;32071;49.036;9.344;2024-03-17T07:43:11;6.60;99.90
46364;DHT22;32071;49.036;9.344;2024-03-17T07:45:37;6.70;99.90
46364;DHT22;32071;49.036;9.344;2024-03-17T07:48:03;6.70;99.90
46364;DHT22;32071;49.036;9.344;2024-03-17T07:50:28;6.70;99.90
46364;DHT22;32071;49.036;9.344;2024-03-17T07:52:54;6.80;99.90
46364;DHT22;32071;49.036;9.344;2024-03-17T07:55:20;6.80;99.90
46364;DHT22;32071;49.036;9.344;2024-03-17T07:57:45;6.90;99.90
46364;DHT22;32071;49.036;9.344;2024-03-17T08:00:11;7.00;99.90
46364;DHT22;32071;49.036;9.344;2024-03-17T08:02:46;7.10;99.90
46364;DHT22;32071;49.036;9.344;2024-03-17T08:05:12;7.20;99.90
46364;DHT22;32071;49.036;9.344;2024-03-17T08:07:39;7.30;99.90
46364;DHT22;32071;49.036;9.344;2024-03-17T08:10:05;7.50;99.90
46364;DHT22;32071;49.036;9.344;2024-03-17T08:12:30;7.60;99.90
46364;DHT22;32071;49.036;9.344;2024-03-17T08:14:56;7.70;99.90
46364;DHT22;32071;49.036;9.344;2024-03-17T08:17:22;7.90;99.90
46364;DHT22;32071;49.036;9.344;2024-03-17T08:19:47;8.10;99.90
46364;DHT22;32071;49.036;9.344;2024-03-17T08:22:13;8.20;99.90
46364;DHT22;32071;49.036;9.344;2024-03-17T08:24:40;8.40;99.90
46364;DHT22;32071;49.036;9.344;2024-03-17T08:27:05;8.50;99.90
46364;DHT22;32071;49.036;9.344;2024-03-17T08:29:32;8.70;99.90
46364;DHT22;32071;49.036;9.344;2024-03-17T08:31:58;8.90;99.90
46364;DHT22;32071;49.036;9.344;2024-03-17T08:34:24;9.10;99.90
46364;DHT22;32071;49.036;9.344;2024-03-17T08:36:51;9.20;99.90
46364;DHT22;32071;49.036;9.344;2024-03-17T08:39:16;9.30;99.90
46364;DHT22;32071;49.036;9.344;2024-03-17T08:41:42;9.50;99.90
46364;DHT22;32071;49.036;9.344;2024-03-17T08:44:11;9.70;99.90
46364;DHT22;32071;49.036;9.344;2024-03-17T08:46:38;9.70;99.90
46364;DHT22;32071;49.036;9.344;2024-03-17T08:49:03;9.90;99.90
46364;DHT22;32071;49.036;9.344;2024-03-17T08:51:29;9.90;99.90
46364;DHT22;32071;49.036;9.344;2024-03-17T08:53:55;10.00;99.90
46364;DHT22;32071;49.036;9.344;2024-03-17T08:56:22;10.20;99.90
46364;DHT22;32071;49.036;9.344;2024-03-17T08:58:48;10.20;99.90
46364;DHT22;32071;49.036;9.344;2024-03-17T09:01:15;10.30;99.90
46364;DHT22;32071;49.036;9.344;2024-03-17T09:03:41;10.30;99.90
46364;DHT22;32071;49.036;9.344;2024-03-17T09:06:17;10.40;99.90
46364;DHT22;32071;49.036;9.344;2024-03-17T09:08:44;10.40;99.90
46364;DHT22;32071;49.036;9.344;2024-03-17T09:11:13;10.40;99.90
46364;DHT22;32071;49.036;9.344;2024-03-17T09:13:39;10.40;99.90
46364;DHT22;32071;49.036;9.344;2024-03-17T09:16:04;10.50;99.90
46364;DHT22;32071;49.036;9.344;2024-03-17T09:18:31;10.70;99.90
46364;DHT22;32071;49.036;9.344;2024-03-17T09:21:07;10.70;99.90
46364;DHT22;32071;49.036;9.344;2024-03-17T09:23:34;10.80;99.90
46364;DHT22;32071;49.036;9.344;2024-03-17T09:26:01;10.90;99.90
46364;DHT22;32071;49.036;9.344;2024-03-17T09:28:28;10.90;99.90
46364;DHT22;32071;49.036;9.344;2024-03-17T09:30:54;11.10;99.90
46364;DHT22;32071;49.036;9.344;2024-03-17T09:33:21;11.30;99.90
46364;DHT22;32071;49.036;9.344;2024-03-17T09:35:58;11.40;99.90
46364;DHT22;32071;49.036;9.344;2024-03-17T09:38:24;11.50;99.90
46364;DHT22;32071;49.036;9.344;2024-03-17T09:40:50;11.50;99.90
46364;DHT22;32071;49.036;9.344;2024-03-17T09:43:21;11.50;99.90
46364;DHT22;32071;49.036;9.344;2024-03-17T09:45:47;11.50;99.90
46364;DHT22;32071;49.036;9.344;2024-03-17T09:48:17;11.70;99.90
46364;DHT22;32071;49.036;9.344;2024-03-17T09:50:55;11.80;99.90
46364;DHT22;32071;49.036;9.344;2024-03-17T09:53:32;11.80;99.90
46364;DHT22;32071;49.036;9.344;2024-03-17T09:56:15;11.80;99.90
46364;DHT22;32071;49.036;9.344;2024-03-17T09:58:42;11.90;99.90
46364;DHT22;32071;49.036;9.344;2024-03-17T10:01:07;12.00;99.90
46364;DHT22;32071;49.036;9.344;2024-03-17T10:03:59;12.10;99.90
46364;DHT22;32071;49.036;9.344;2024-03-17T10:06:30;12.40;99.90
46364;DHT22;32071;49.036;9.344;2024-03-17T10:08:58;12.60;99.90
46364;DHT22;32071;49.036;9.344;2024-03-17T10:11:31;12.60;99.90
46364;DHT22;32071;49.036;9.344;2024-03-17T10:14:04;12.50;99.90
46364;DHT22;32071;49.036;9.344;2024-03-17T10:16:32;12.50;99.90
46364;DHT22;32071;49.036;9.344;2024-03-17T10:19:14;12.70;99.90
46364;DHT22;32071;49.036;9.344;2024-03-17T10:24:11;12.90;99.90
46364;DHT22;32071;49.036;9.344;2024-03-17T10:26:48;13.00;99.90
46364;DHT22;32071;49.036;9.344;2024-03-17T10:29:26;13.20;99.90
46364;DHT22;32071;49.036;9.344;2024-03-17T10:34:38;13.30;99.90
46364;DHT22;32071;49.036;9.344;2024-03-17T10:37:15;13.30;99.90
46364;DHT22;32071;49.036;9.344;2024-03-17T10:39:43;13.40;99.90
46364;DHT22;32071;49.036;9.344;2024-03-17T10:42:11;13.40;99.90
46364;DHT22;32071;49.036;9.344;2024-03-17T10:44:41;13.40;99.90
46364;DHT22;32071;49.036;9.344;2024-03-17T10:47:32;13.40;99.90
46364;DHT22;32071;49.036;9.344;2024-03-17T10:49:58;13.20;99.90
46364;DHT22;32071;49.036;9.344;2024-03-17T10:52:33;13.30;99.90
46364;DHT22;32071;49.036;9.344;2024-03-17T10:55:05;13.50;99.90
46364;DHT22;32071;49.036;9.344;2024-03-17T11:00:06;13.80;99.90
46364;DHT22;32071;49.036;9.344;2024-03-17T11:02:33;13.80;99.90
46364;DHT22;32071;49.036;9.344;2024-03-17T11:05:15;13.80;99.90
46364;DHT22;32071;49.036;9.344;2024-03-17T11:07:43;13.80;99.90
46364;DHT22;32071;49.036;9.344;2024-03-17T11:10:28;14.00;99.90
46364;DHT22;32071;49.036;9.344;2024-03-17T11:12:56;14.10;99.90
46364;DHT22;32071;49.036;9.344;2024-03-17T11:20:38;14.20;99.90
46364;DHT22;32071;49.036;9.344;2024-03-17T11:23:05;14.20;99.90
46364;DHT22;32071;49.036;9.344;2024-03-17T11:25:40;14.20;99.90
46364;DHT22;32071;49.036;9.344;2024-03-17T11:28:08;14.30;99.90
46364;DHT22;32071;49.036;9.344;2024-03-17T11:30:48;14.30;99.90
46364;DHT22;32071;49.036;9.344;2024-03-17T11:41:39;14.50;99.90
46364;DHT22;32071;49.036;9.344;2024-03-17T11:44:25;14.50;99.90
46364;DHT22;32071;49.036;9.344;2024-03-17T11:47:07;14.60;99.90
46364;DHT22;32071;49.036;9.344;2024-03-17T11:49:38;14.80;99.90
46364;DHT22;32071;49.036;9.344;2024-03-17T11:52:15;15.00;99.90
46364;DHT22;32071;49.036;9.344;2024-03-17T11:54:45;15.00;99.90
46364;DHT22;32071;49.036;9.344;2024-03-17T11:57:20;14.90;99.90
46364;DHT22;32071;49.036;9.344;2024-03-17T11:59:50;14.90;99.90
46364;DHT22;32071;49.036;9.344;2024-03-17T12:02:26;15.00;99.90
46364;DHT22;32071;49.036;9.344;2024-03-17T12:04:58;15.20;99.90
46364;DHT22;32071;49.036;9.344;2024-03-17T12:07:24;15.20;99.90
46364;DHT22;32071;49.036;9.344;2024-03-17T12:09:51;15.10;99.90
46364;DHT22;32071;49.036;9.344;2024-03-17T12:12:22;15.20;99.90
46364;DHT22;32071;49.036;9.344;2024-03-17T12:14:50;15.20;99.90
46364;DHT22;32071;49.036;9.344;2024-03-17T12:17:22;15.20;99.90
46364;DHT22;32071;49.036;9.344;2024-03-17T12:19:48;15.30;99.90
46364;DHT22;32071;49.036;9.344;2024-03-17T12:22:21;15.40;99.90
46364;DHT22;32071;49.036;9.344;2024-03-17T12:24:52;15.50;99.90
46364;DHT22;32071;49.036;9.344;2024-03-17T12:27:23;15.30;99.90
46364;DHT22;32071;49.036;9.344;2024-03-17T12:29:50;15.40;99.90
46364;DHT22;32071;49.036;9.344;2024-03-17T12:32:16;15.30;99.90
46364;DHT22;32071;49.036;9.344;2024-03-17T12:34:50;15.40;99.90
46364;DHT22;32071;49.036;9.344;2024-03-17T12:37:21;15.50;99.90
46364;DHT22;32071;49.036;9.344;2024-03-17T12:39:47;15.60;99.90
46364;DHT22;32071;49.036;9.344;2024-03-17T12:49:51;15.40;99.90
46364;DHT22;32071;49.036;9.344;2024-03-17T12:52:25;15.30;99.90
46364;DHT22;32071;49.036;9.344;2024-03-17T12:55:04;15.20;99.90
46364;DHT22;32071;49.036;9.344;2024-03-17T12:57:50;15.10;99.90
46364;DHT22;32071;49.036;9.344;2024-03-17T13:00:34;15.10;99.90
46364;DHT22;32071;49.036;9.344;2024-03-17T13:03:09;15.20;99.90
46364;DHT22;32071;49.036;9.344;2024-03-17T13:05:35;15.30;99.90
46364;DHT22;32071;49.036;9.344;2024-03-17T13:08:01;15.40;99.90
46364;DHT22;32071;49.036;9.344;2024-03-17T13:10:29;15.50;99.90
46364;DHT22;32071;49.036;9.344;2024-03-17T13:13:01;15.30;99.90
46364;DHT22;32071;49.036;9.344;2024-03-17T13:15:27;15.00;99.90
46364;DHT22;32071;49.036;9.344;2024-03-17T13:17:54;14.90;99.90
46364;DHT22;32071;49.036;9.344;2024-03-17T13:20:19;14.80;99.90
46364;DHT22;32071;49.036;9.344;2024-03-17T13:22:45;14.60;99.90
46364;DHT22;32071;49.036;9.344;2024-03-17T13:25:18;14.50;99.90
46364;DHT22;32071;49.036;9.344;2024-03-17T13:27:46;14.40;99.90
46364;DHT22;32071;49.036;9.344;2024-03-17T13:30:15;14.20;99.90
46364;DHT22;32071;49.036;9.344;2024-03-17T13:32:42;14.10;99.90
46364;DHT22;32071;49.036;9.344;2024-03-17T13:35:21;14.10;99.90
46364;DHT22;32071;49.036;9.344;2024-03-17T13:37:49;14.20;99.90
46364;DHT22;32071;49.036;9.344;2024-03-17T13:40:16;14.30;99.90
46364;DHT22;32071;49.036;9.344;2024-03-17T13:42:44;14.50;99.90
46364;DHT22;32071;49.036;9.344;2024-03-17T13:45:11;14.50;99.90
46364;DHT22;32071;49.036;9.344;2024-03-17T13:47:37;14.60;99.90
46364;DHT22;32071;49.036;9.344;2024-03-17T13:50:03;14.70;99.90
46364;DHT22;32071;49.036;9.344;2024-03-17T13:52:32;14.90;99.90
46364;DHT22;32071;49.036;9.344;2024-03-17T13:54:58;15.00;99.90
46364;DHT22;32071;49.036;9.344;2024-03-17T13:57:24;15.10;99.90
46364;DHT22;32071;49.036;9.344;2024-03-17T13:59:50;15.10;99.90
46364;DHT22;32071;49.036;9.344;2024-03-17T14:02:17;15.30;99.90
46364;DHT22;32071;49.036;9.344;2024-03-17T14:04:44;15.20;99.90
46364;DHT22;32071;49.036;9.344;2024-03-17T14:07:09;15.30;99.90
46364;DHT22;32071;49.036;9.344;2024-03-17T14:09:35;15.30;99.90
46364;DHT22;32071;49.036;9.344;2024-03-17T14:12:00;15.20;99.90
46364;DHT22;32071;49.036;9.344;2024-03-17T14:14:26;15.10;99.90
46364;DHT22;32071;49.036;9.344;2024-03-17T14:16:51;15.10;99.90
46364;DHT22;32071;49.036;9.344;2024-03-17T14:19:17;15.20;99.90
46364;DHT22;32071;49.036;9.344;2024-03-17T14:21:42;15.20;99.90
46364;DHT22;32071;49.036;9.344;2024-03-17T14:24:08;15.20;99.90
46364;DHT22;32071;49.036;9.344;2024-03-17T14:26:35;15.10;99.90
46364;DHT22;32071;49.036;9.344;2024-03-17T14:29:02;15.00;99.90
46364;DHT22;32071;49.036;9.344;2024-03-17T14:31:32;15.00;99.90
46364;DHT22;32071;49.036;9.344;2024-03-17T14:33:58;15.10;99.90
46364;DHT22;32071;49.036;9.344;2024-03-17T14:36:24;15.10;99.90
46364;DHT22;32071;49.036;9.344;2024-03-17T14:38:53;15.20;99.90
46364;DHT22;32071;49.036;9.344;2024-03-17T14:41:19;15.30;99.90
46364;DHT22;32071;49.036;9.344;2024-03-17T14:43:45;15.40;99.90
46364;DHT22;32071;49.036;9.344;2024-03-17T14:46:11;15.50;99.90
46364;DHT22;32071;49.036;9.344;2024-03-17T14:48:39;15.30;99.90
46364;DHT22;32071;49.036;9.344;2024-03-17T14:51:05;15.40;99.90
46364;DHT22;32071;49.036;9.344;2024-03-17T14:53:31;15.40;99.90
46364;DHT22;32071;49.036;9.344;2024-03-17T14:55:56;15.40;99.90
46364;DHT22;32071;49.036;9.344;2024-03-17T14:58:22;15.60;99.90
46364;DHT22;32071;49.036;9.344;2024-03-17T15:00:47;15.60;99.90
46364;DHT22;32071;49.036;9.344;2024-03-17T15:03:13;15.50;99.90
46364;DHT22;32071;49.036;9.344;2024-03-17T15:05:39;15.50;99.90
46364;DHT22;32071;49.036;9.344;2024-03-17T15:08:05;15.60;99.90
46364;DHT22;32071;49.036;9.344;2024-03-17T15:10:31;15.80;99.90
46364;DHT22;32071;49.036;9.344;2024-03-17T15:12:58;16.00;99.90
46364;DHT22;32071;49.036;9.344;2024-03-17T15:15:23;16.20;99.90
46364;DHT22;32071;49.036;9.344;2024-03-17T15:17:49;16.20;99.90
46364;DHT22;32071;49.036;9.344;2024-03-17T15:20:16;16.10;99.90
46364;DHT22;32071;49.036;9.344;2024-03-17T15:22:51;16.20;99.90
46364;DHT22;32071;49.036;9.344;2024-03-17T15:25:17;16.30;99.90
46364;DHT22;32071;49.036;9.344;2024-03-17T15:27:43;16.20;99.90
46364;DHT22;32071;49.036;9.344;2024-03-17T15:30:17;16.20;99.90
46364;DHT22;32071;49.036;9.344;2024-03-17T15:32:45;15.90;99.90
46364;DHT22;32071;49.036;9.344;2024-03-17T15:35:11;15.80;99.80
46364;DHT22;32071;49.036;9.344;2024-03-17T15:37:39;15.70;99.90
46364;DHT22;32071;49.036;9.344;2024-03-17T15:40:06;15.40;99.90
46364;DHT22;32071;49.036;9.344;2024-03-17T15:42:32;15.20;99.90
46364;DHT22;32071;49.036;9.344;2024-03-17T15:44:58;15.10;99.90
46364;DHT22;32071;49.036;9.344;2024-03-17T15:47:25;15.00;99.90
46364;DHT22;32071;49.036;9.344;2024-03-17T15:49:50;14.90;99.90
46364;DHT22;32071;49.036;9.344;2024-03-17T15:52:16;14.80;99.90
46364;DHT22;32071;49.036;9.344;2024-03-17T15:54:41;14.80;99.90
46364;DHT22;32071;49.036;9.344;2024-03-17T15:57:07;14.70;99.90
46364;DHT22;32071;49.036;9.344;2024-03-17T15:59:32;14.80;99.90
46364;DHT22;32071;49.036;9.344;2024-03-17T16:02:00;14.90;99.90
46364;DHT22;32071;49.036;9.344;2024-03-17T16:04:26;14.90;99.90
46364;DHT22;32071;49.036;9.344;2024-03-17T16:06:53;15.00;99.90
46364;DHT22;32071;49.036;9.344;2024-03-17T16:09:20;15.10;99.90
46364;DHT22;32071;49.036;9.344;2024-03-17T16:11:47;15.20;99.90